OB1901 SUTR-SUPE
Flight info
| Callsign | OB1901 |
|---|---|
| Flight time | N/A |
| Altitude | 4000 |
| Route | LOBIX |
| Aircraft | C152/L-SFG/C |
Departure
| Time | 2026-04-29 02:45 |
|---|---|
| Airport | Treinta y Tres Airport (SUTR) |
Arrival
| Time | N/A |
|---|---|
| Airport | El Jagüel / Punta del Este Airport (SUPE) |
| Time | Latitude | Longitude | Altitude | Speed | Heading |
|---|---|---|---|---|---|
| 2026-04-29 02:36 | -33.19984 | -54.34688 | 216 ft | 0 kts | 355° |
| 2026-04-29 02:44 | -33.19966 | -54.34688 | 215 ft | 17 kts | 359° |
| 2026-04-29 02:44 | -33.19675 | -54.34713 | 210 ft | 63 kts | 355° |
| 2026-04-29 02:44 | -33.19192 | -54.34768 | 362 ft | 68 kts | 352° |
| 2026-04-29 02:44 | -33.18751 | -54.34856 | 589 ft | 60 kts | 339° |
| 2026-04-29 02:45 | -33.18340 | -54.35000 | 747 ft | 63 kts | 345° |
| 2026-04-29 02:45 | -33.17954 | -54.35159 | 936 ft | 60 kts | 337° |
| 2026-04-29 02:45 | -33.17593 | -54.35420 | 1104 ft | 58 kts | 300° |
| 2026-04-29 02:45 | -33.17509 | -54.35908 | 1258 ft | 61 kts | 263° |
| 2026-04-29 02:46 | -33.17688 | -54.36359 | 1438 ft | 63 kts | 232° |
| 2026-04-29 02:46 | -33.18016 | -54.36657 | 1612 ft | 63 kts | 202° |
| 2026-04-29 02:46 | -33.18490 | -54.36850 | 1650 ft | 83 kts | 197° |
| 2026-04-29 02:46 | -33.19090 | -54.36979 | 1714 ft | 90 kts | 186° |
| 2026-04-29 02:47 | -33.19714 | -54.37003 | 1694 ft | 87 kts | 181° |
| 2026-04-29 02:47 | -33.20314 | -54.36974 | 1675 ft | 86 kts | 178° |
| 2026-04-29 02:47 | -33.20907 | -54.36912 | 1655 ft | 85 kts | 174° |
| 2026-04-29 02:47 | -33.21494 | -54.36800 | 1620 ft | 83 kts | 169° |
| 2026-04-29 02:48 | -33.22029 | -54.36643 | 1658 ft | 77 kts | 166° |
| 2026-04-29 02:48 | -33.22509 | -54.36458 | 1747 ft | 70 kts | 160° |
| 2026-04-29 02:48 | -33.22934 | -54.36226 | 1811 ft | 67 kts | 151° |
| 2026-04-29 02:48 | -33.23321 | -54.35940 | 1873 ft | 63 kts | 146° |
| 2026-04-29 02:49 | -33.23669 | -54.35655 | 1920 ft | 60 kts | 143° |
| 2026-04-29 02:49 | -33.24027 | -54.35340 | 1950 ft | 62 kts | 149° |
| 2026-04-29 02:49 | -33.24414 | -54.35254 | 2018 ft | 54 kts | 185° |
| 2026-04-29 02:49 | -33.24801 | -54.35245 | 2146 ft | 54 kts | 167° |
| 2026-04-29 02:50 | -33.25175 | -54.35119 | 2337 ft | 55 kts | 162° |
| 2026-04-29 02:50 | -33.25525 | -54.34940 | 2508 ft | 58 kts | 156° |
| 2026-04-29 02:50 | -33.25894 | -54.34781 | 2671 ft | 54 kts | 159° |
| 2026-04-29 02:50 | -33.26275 | -54.34695 | 2811 ft | 56 kts | 178° |
| 2026-04-29 02:51 | -33.26656 | -54.34625 | 2954 ft | 58 kts | 187° |
| 2026-04-29 02:51 | -33.27050 | -54.34691 | 3144 ft | 53 kts | 187° |
| 2026-04-29 02:51 | -33.27419 | -54.34707 | 3269 ft | 52 kts | 188° |
| 2026-04-29 02:51 | -33.27771 | -54.34787 | 3375 ft | 52 kts | 192° |
| 2026-04-29 02:52 | -33.28126 | -54.34887 | 3495 ft | 54 kts | 202° |
| 2026-04-29 02:52 | -33.28467 | -54.35027 | 3611 ft | 52 kts | 198° |
| 2026-04-29 02:52 | -33.28814 | -54.35199 | 3720 ft | 53 kts | 201° |
| 2026-04-29 02:52 | -33.29170 | -54.35359 | 3839 ft | 54 kts | 203° |
| 2026-04-29 02:53 | -33.29528 | -54.35491 | 3980 ft | 54 kts | 197° |
| 2026-04-29 02:53 | -33.29893 | -54.35582 | 4094 ft | 55 kts | 190° |
| 2026-04-29 02:53 | -33.30275 | -54.35674 | 4211 ft | 57 kts | 194° |
| 2026-04-29 02:53 | -33.30653 | -54.35806 | 4347 ft | 55 kts | 200° |
| 2026-04-29 02:54 | -33.31046 | -54.35945 | 4411 ft | 67 kts | 198° |
| 2026-04-29 02:54 | -33.31536 | -54.36140 | 4468 ft | 78 kts | 202° |
| 2026-04-29 02:54 | -33.32077 | -54.36430 | 4484 ft | 92 kts | 207° |
| 2026-04-29 02:54 | -33.32640 | -54.36812 | 4514 ft | 94 kts | 213° |
| 2026-04-29 02:55 | -33.33202 | -54.37236 | 4519 ft | 99 kts | 215° |
| 2026-04-29 02:55 | -33.33759 | -54.37735 | 4510 ft | 101 kts | 218° |
| 2026-04-29 02:55 | -33.34315 | -54.38267 | 4487 ft | 103 kts | 220° |
| 2026-04-29 02:55 | -33.34878 | -54.38787 | 4498 ft | 100 kts | 214° |
| 2026-04-29 02:56 | -33.35504 | -54.39133 | 4472 ft | 103 kts | 198° |
| 2026-04-29 02:56 | -33.36189 | -54.39407 | 4366 ft | 108 kts | 201° |
| 2026-04-29 02:56 | -33.36898 | -54.39706 | 4289 ft | 107 kts | 201° |
| 2026-04-29 02:56 | -33.37573 | -54.40027 | 4298 ft | 100 kts | 203° |
| 2026-04-29 02:57 | -33.38179 | -54.40338 | 4307 ft | 89 kts | 203° |
| 2026-04-29 02:57 | -33.38766 | -54.40582 | 4232 ft | 89 kts | 198° |
| 2026-04-29 02:57 | -33.39358 | -54.40796 | 4159 ft | 90 kts | 198° |
| 2026-04-29 02:57 | -33.39940 | -54.41063 | 4096 ft | 88 kts | 207° |
| 2026-04-29 02:58 | -33.40486 | -54.41354 | 4063 ft | 86 kts | 204° |
| 2026-04-29 02:58 | -33.41016 | -54.41631 | 4079 ft | 79 kts | 206° |
| 2026-04-29 02:58 | -33.41507 | -54.41887 | 4089 ft | 76 kts | 205° |
| 2026-04-29 02:58 | -33.41959 | -54.42187 | 4081 ft | 75 kts | 208° |
| 2026-04-29 02:59 | -33.42477 | -54.42415 | 3964 ft | 86 kts | 198° |
| 2026-04-29 02:59 | -33.43010 | -54.42704 | 3911 ft | 85 kts | 214° |
| 2026-04-29 02:59 | -33.43504 | -54.43120 | 3847 ft | 86 kts | 218° |
| 2026-04-29 02:59 | -33.43978 | -54.43561 | 3795 ft | 85 kts | 223° |
| 2026-04-29 03:00 | -33.44500 | -54.43901 | 3717 ft | 87 kts | 203° |
| 2026-04-29 03:00 | -33.45053 | -54.44174 | 3684 ft | 85 kts | 203° |
| 2026-04-29 03:00 | -33.45581 | -54.44441 | 3698 ft | 79 kts | 203° |
| 2026-04-29 03:00 | -33.46057 | -54.44691 | 3749 ft | 72 kts | 213° |
| 2026-04-29 03:01 | -33.46485 | -54.45080 | 3604 ft | 81 kts | 222° |
| 2026-04-29 03:01 | -33.46886 | -54.45507 | 3445 ft | 74 kts | 221° |
| 2026-04-29 03:01 | -33.47311 | -54.45948 | 3114 ft | 83 kts | 229° |
| 2026-04-29 03:01 | -33.47597 | -54.46481 | 2919 ft | 74 kts | 248° |
| 2026-04-29 03:02 | -33.47608 | -54.47101 | 2707 ft | 70 kts | 282° |
| 2026-04-29 03:02 | -33.47491 | -54.47649 | 2527 ft | 67 kts | 287° |
| 2026-04-29 03:02 | -33.47353 | -54.48190 | 2335 ft | 68 kts | 287° |
| 2026-04-29 03:02 | -33.47175 | -54.48706 | 2142 ft | 69 kts | 294° |
| 2026-04-29 03:03 | -33.46935 | -54.49221 | 1917 ft | 72 kts | 303° |
| 2026-04-29 03:03 | -33.46646 | -54.49673 | 1660 ft | 68 kts | 307° |
| 2026-04-29 03:03 | -33.46359 | -54.50059 | 1465 ft | 58 kts | 315° |
| 2026-04-29 03:03 | -33.46083 | -54.50430 | 1281 ft | 57 kts | 309° |
| 2026-04-29 03:04 | -33.45824 | -54.50840 | 1191 ft | 67 kts | 304° |
| 2026-04-29 03:04 | -33.45600 | -54.51325 | 1137 ft | 67 kts | 295° |
| 2026-04-29 03:04 | -33.45423 | -54.51837 | 1084 ft | 66 kts | 289° |
| 2026-04-29 03:04 | -33.45508 | -54.52308 | 1049 ft | 65 kts | 219° |
| 2026-04-29 03:05 | -33.45890 | -54.52609 | 989 ft | 68 kts | 209° |
| 2026-04-29 03:05 | -33.46297 | -54.52880 | 932 ft | 68 kts | 215° |
| 2026-04-29 03:05 | -33.46684 | -54.53214 | 799 ft | 75 kts | 239° |
| 2026-04-29 03:05 | -33.46950 | -54.53716 | 515 ft | 68 kts | 211° |
| 2026-04-29 03:06 | -33.47352 | -54.53889 | 308 ft | 40 kts | 201° |
| 2026-04-29 03:06 | -33.47488 | -54.53948 | 313 ft | 13 kts | 207° |
| 2026-04-29 03:06 | -33.47566 | -54.53998 | 313 ft | 7 kts | 210° |
| 2026-04-29 03:06 | -33.47593 | -54.54013 | 314 ft | 9 kts | 202° |
| 2026-04-29 03:07 | -33.47663 | -54.54049 | 315 ft | 9 kts | 201° |
| 2026-04-29 03:07 | -33.47708 | -54.54074 | 317 ft | 5 kts | 211° |
| 2026-04-29 03:07 | -33.47730 | -54.54082 | 318 ft | 1 kts | 192° |